Time;durP1;ratioP1;P1;durP2;ratioP2;P2;SDS_P1;SDS_P2;PMS_P1;PMS_P2;Temp;Humidity;BMP_temperature;BMP_pressure;BME280_temperature;BME280_humidity;BME280_pressure;Samples;Min_cycle;Max_cycle;Signal;HPM_P1;HPM_P2
2022/04/23 00:01:42;;;;;;;11.35;2.78;;;;;;;;;;4994360;28;20030;-72
2022/04/23 00:04:09;;;;;;;11.05;2.92;;;;;;;;;;4994123;28;20033;-73
2022/04/23 00:06:35;;;;;;;11.65;2.75;;;;;;;;;;4994759;28;20391;-73
2022/04/23 00:09:02;;;;;;;14.27;2.97;;;;;;;;;;4994389;28;20080;-73
2022/04/23 00:11:28;;;;;;;11.07;2.42;;;;;;;;;;4994177;28;20040;-72
2022/04/23 00:13:55;;;;;;;7.38;2.40;;;;;;;;;;4993834;28;20019;-73
2022/04/23 00:16:25;;;;;;;14.30;2.75;;;;;;;;;;4978678;28;20026;-72
2022/04/23 00:18:51;;;;;;;9.60;2.60;;;;;;;;;;4990797;28;20032;-73
2022/04/23 00:21:18;;;;;;;11.80;2.70;;;;;;;;;;4989751;28;20092;-72
2022/04/23 00:23:47;;;;;;;11.75;2.60;;;;;;;;;;4989562;28;20030;-72
2022/04/23 00:26:13;;;;;;;11.30;2.42;;;;;;;;;;4989426;28;20041;-72
2022/04/23 00:28:40;;;;;;;14.27;2.67;;;;;;;;;;4990711;28;20037;-73
2022/04/23 00:31:06;;;;;;;14.48;3.05;;;;;;;;;;4992351;28;20191;-73
2022/04/23 00:33:37;;;;;;;11.15;2.75;;;;;;;;;;4994426;28;20030;-72
2022/04/23 00:36:09;;;;;;;13.07;2.55;;;;;;;;;;4993876;28;20022;-72
2022/04/23 00:38:36;;;;;;;11.60;2.78;;;;;;;;;;4993397;28;20031;-73
2022/04/23 00:41:02;;;;;;;11.20;2.83;;;;;;;;;;4993543;28;20018;-72
2022/04/23 00:43:29;;;;;;;15.07;3.08;;;;;;;;;;4993176;28;20046;-73
2022/04/23 00:45:56;;;;;;;13.35;2.60;;;;;;;;;;4993410;28;20050;-72
2022/04/23 00:48:24;;;;;;;13.68;2.75;;;;;;;;;;4993745;28;20026;-72
2022/04/23 00:50:52;;;;;;;17.13;2.67;;;;;;;;;;4993537;28;20030;-73
2022/04/23 00:53:19;;;;;;;13.93;3.28;;;;;;;;;;4993482;28;20022;-72
2022/04/23 00:55:46;;;;;;;10.20;2.78;;;;;;;;;;4993561;28;20022;-73
2022/04/23 00:58:17;;;;;;;10.15;2.50;;;;;;;;;;4992964;28;20042;-72
2022/04/23 01:00:44;;;;;;;10.80;2.30;;;;;;;;;;4993571;28;20484;-72
2022/04/23 01:03:12;;;;;;;12.52;2.33;;;;;;;;;;4993139;28;20084;-72
2022/04/23 01:05:41;;;;;;;14.95;2.97;;;;;;;;;;4992989;28;20046;-73
2022/04/23 01:08:08;;;;;;;14.00;2.72;;;;;;;;;;4993228;28;20014;-73
2022/04/23 01:10:35;;;;;;;17.33;2.70;;;;;;;;;;4992691;28;20042;-72
2022/04/23 01:13:01;;;;;;;12.68;2.45;;;;;;;;;;4993130;28;20025;-73
2022/04/23 01:15:27;;;;;;;17.63;3.13;;;;;;;;;;4991924;28;20034;-72
2022/04/23 01:17:53;;;;;;;13.38;2.70;;;;;;;;;;4992965;28;20022;-73
2022/04/23 01:20:20;;;;;;;14.95;3.15;;;;;;;;;;4992733;28;20042;-73
2022/04/23 01:22:46;;;;;;;11.80;3.08;;;;;;;;;;4992745;28;20076;-72
2022/04/23 01:25:14;;;;;;;16.88;3.13;;;;;;;;;;4992884;28;20080;-72
2022/04/23 01:27:41;;;;;;;13.15;3.08;;;;;;;;;;4993494;28;20034;-72
2022/04/23 01:30:08;;;;;;;10.95;2.75;;;;;;;;;;4992643;28;20026;-73
2022/04/23 01:32:35;;;;;;;8.85;2.58;;;;;;;;;;4992619;28;20033;-72
2022/04/23 01:35:01;;;;;;;12.68;2.88;;;;;;;;;;4992560;28;20438;-72
2022/04/23 01:37:28;;;;;;;14.93;2.83;;;;;;;;;;4992523;28;20026;-73
2022/04/23 01:39:54;;;;;;;11.40;2.50;;;;;;;;;;4991699;28;20038;-72
2022/04/23 01:42:20;;;;;;;10.32;2.58;;;;;;;;;;4992359;28;20441;-72
2022/04/23 01:44:51;;;;;;;15.23;2.60;;;;;;;;;;4992275;28;20054;-73
2022/04/23 01:47:17;;;;;;;16.13;2.40;;;;;;;;;;4992377;28;20517;-73
2022/04/23 01:49:44;;;;;;;12.05;2.80;;;;;;;;;;4992444;28;20291;-73
2022/04/23 01:52:14;;;;;;;17.23;2.92;;;;;;;;;;4992293;28;20019;-72
2022/04/23 01:54:40;;;;;;;14.07;3.28;;;;;;;;;;4992472;28;20511;-72
2022/04/23 01:57:07;;;;;;;12.15;2.90;;;;;;;;;;4992180;28;20041;-72
2022/04/23 01:59:33;;;;;;;11.70;2.53;;;;;;;;;;4992027;28;20470;-73
2022/04/23 02:02:00;;;;;;;18.40;2.80;;;;;;;;;;4992205;28;20022;-72
2022/04/23 02:04:26;;;;;;;14.60;3.13;;;;;;;;;;4992418;28;20018;-72
2022/04/23 02:06:53;;;;;;;18.27;2.75;;;;;;;;;;4992662;28;20023;-73
2022/04/23 02:09:19;;;;;;;13.85;2.70;;;;;;;;;;4987920;28;20038;-73
2022/04/23 02:11:46;;;;;;;19.55;3.05;;;;;;;;;;4987785;28;20376;-73
2022/04/23 02:14:13;;;;;;;13.35;2.97;;;;;;;;;;4987723;28;20018;-73
2022/04/23 02:16:40;;;;;;;16.05;3.10;;;;;;;;;;4989792;28;20072;-72
2022/04/23 02:19:06;;;;;;;11.98;2.20;;;;;;;;;;4990104;28;20480;-73
2022/04/23 02:21:32;;;;;;;11.32;3.13;;;;;;;;;;5003219;28;20036;-73
2022/04/23 02:24:01;;;;;;;16.83;2.65;;;;;;;;;;4991786;28;20023;-72
2022/04/23 02:26:27;;;;;;;11.90;2.97;;;;;;;;;;4990842;28;20034;-73
2022/04/23 02:28:54;;;;;;;12.13;2.88;;;;;;;;;;4988121;28;20026;-73
2022/04/23 02:31:20;;;;;;;15.27;3.45;;;;;;;;;;4991902;28;20045;-72
2022/04/23 02:33:46;;;;;;;15.27;3.15;;;;;;;;;;4988088;28;20239;-73
2022/04/23 02:36:15;;;;;;;15.75;2.50;;;;;;;;;;5003793;28;20481;-72
2022/04/23 02:38:41;;;;;;;15.52;2.97;;;;;;;;;;4986528;28;20022;-73
2022/04/23 02:41:11;;;;;;;12.95;3.15;;;;;;;;;;4991620;28;20042;-73
2022/04/23 02:43:43;;;;;;;7.25;2.53;;;;;;;;;;4991854;28;20030;-73
2022/04/23 02:46:09;;;;;;;15.45;2.50;;;;;;;;;;4991939;28;20030;-73
2022/04/23 02:48:36;;;;;;;10.60;2.92;;;;;;;;;;4992158;28;20021;-73
2022/04/23 02:51:02;;;;;;;11.85;2.83;;;;;;;;;;4991819;28;20121;-73
2022/04/23 02:53:28;;;;;;;12.65;2.65;;;;;;;;;;4995016;28;20040;-73
2022/04/23 02:55:56;;;;;;;11.85;2.28;;;;;;;;;;4995620;28;20415;-73
2022/04/23 02:58:25;;;;;;;16.83;3.33;;;;;;;;;;4995807;28;20018;-72
2022/04/23 03:00:54;;;;;;;14.20;3.10;;;;;;;;;;4995923;28;20458;-73
2022/04/23 03:03:21;;;;;;;12.85;2.40;;;;;;;;;;4995285;28;20033;-72
2022/04/23 03:05:48;;;;;;;10.93;2.45;;;;;;;;;;4995266;28;20514;-72
2022/04/23 03:08:15;;;;;;;12.35;2.78;;;;;;;;;;4994688;28;20030;-72
2022/04/23 03:10:41;;;;;;;10.10;2.53;;;;;;;;;;4995202;28;20024;-73
2022/04/23 03:13:08;;;;;;;16.92;2.90;;;;;;;;;;4995305;28;20492;-72
2022/04/23 03:15:36;;;;;;;15.70;3.22;;;;;;;;;;4996030;28;20035;-72
2022/04/23 03:18:08;;;;;;;11.68;3.08;;;;;;;;;;5007521;28;20076;-72
2022/04/23 03:20:35;;;;;;;18.63;2.45;;;;;;;;;;4994967;28;20421;-72
2022/04/23 03:23:01;;;;;;;13.90;2.78;;;;;;;;;;4994688;28;20030;-73
2022/04/23 03:25:28;;;;;;;17.60;3.25;;;;;;;;;;4994951;28;20030;-73
2022/04/23 03:27:55;;;;;;;12.32;2.40;;;;;;;;;;4995367;28;20030;-73
2022/04/23 03:30:22;;;;;;;14.52;3.13;;;;;;;;;;4995450;28;20040;-72
2022/04/23 03:32:48;;;;;;;11.13;2.75;;;;;;;;;;4995024;28;20023;-72
2022/04/23 03:35:15;;;;;;;15.20;2.58;;;;;;;;;;4994860;28;20040;-72
2022/04/23 03:37:41;;;;;;;13.38;2.95;;;;;;;;;;4994627;28;20026;-73
2022/04/23 03:40:09;;;;;;;11.75;2.60;;;;;;;;;;4994529;28;20046;-73
2022/04/23 03:42:35;;;;;;;14.32;2.90;;;;;;;;;;4995232;28;20037;-72
2022/04/23 03:45:02;;;;;;;9.77;2.67;;;;;;;;;;4994389;28;20046;-72
2022/04/23 03:47:28;;;;;;;15.70;2.50;;;;;;;;;;4994464;28;20026;-73
2022/04/23 03:49:55;;;;;;;9.30;2.67;;;;;;;;;;4993105;28;20022;-73
2022/04/23 03:52:21;;;;;;;12.15;2.03;;;;;;;;;;4994586;28;20040;-72
2022/04/23 03:54:48;;;;;;;14.50;2.72;;;;;;;;;;4991019;28;20022;-72
2022/04/23 03:57:14;;;;;;;12.07;2.50;;;;;;;;;;4990377;28;20487;-73
2022/04/23 03:59:40;;;;;;;12.88;2.80;;;;;;;;;;4989972;28;20518;-72
2022/04/23 04:02:07;;;;;;;8.98;2.13;;;;;;;;;;4994203;28;20064;-72
2022/04/23 04:04:33;;;;;;;12.48;2.85;;;;;;;;;;4992975;28;20023;-73
2022/04/23 04:07:00;;;;;;;15.23;2.80;;;;;;;;;;4994415;28;20015;-73
2022/04/23 04:09:29;;;;;;;12.95;3.05;;;;;;;;;;4994514;28;20076;-72
2022/04/23 04:12:02;;;;;;;13.88;3.00;;;;;;;;;;4994061;28;20026;-73
2022/04/23 04:14:32;;;;;;;11.60;2.58;;;;;;;;;;4994075;28;20014;-72
2022/04/23 04:17:00;;;;;;;12.13;2.67;;;;;;;;;;4993999;28;20030;-73
2022/04/23 04:19:27;;;;;;;11.18;2.42;;;;;;;;;;4993519;28;20419;-72
2022/04/23 04:21:54;;;;;;;8.07;2.55;;;;;;;;;;4994305;28;20021;-72
2022/04/23 04:24:20;;;;;;;11.88;2.58;;;;;;;;;;4994492;28;20040;-73
2022/04/23 04:26:47;;;;;;;13.13;2.72;;;;;;;;;;4993751;28;20495;-72
2022/04/23 04:29:14;;;;;;;11.98;2.50;;;;;;;;;;4993729;28;20030;-72
2022/04/23 04:31:47;;;;;;;11.73;2.47;;;;;;;;;;4993802;28;20021;-72
2022/04/23 04:34:14;;;;;;;16.20;2.70;;;;;;;;;;5008409;28;20499;-72
2022/04/23 04:36:40;;;;;;;11.15;2.22;;;;;;;;;;4989884;28;20097;-73
2022/04/23 04:39:06;;;;;;;14.43;3.72;;;;;;;;;;4989198;28;20053;-73
2022/04/23 04:41:35;;;;;;;16.25;2.85;;;;;;;;;;4993820;28;20034;-72
2022/04/23 04:44:05;;;;;;;13.63;2.90;;;;;;;;;;4993559;28;20046;-72
2022/04/23 04:46:35;;;;;;;12.77;2.78;;;;;;;;;;4993546;28;20503;-73
2022/04/23 04:49:02;;;;;;;11.57;3.25;;;;;;;;;;4993170;28;20022;-72
2022/04/23 04:51:28;;;;;;;16.98;3.45;;;;;;;;;;4993707;28;20430;-72
2022/04/23 04:53:55;;;;;;;16.40;2.70;;;;;;;;;;4993244;28;20027;-73
2022/04/23 04:56:21;;;;;;;13.20;3.08;;;;;;;;;;4993110;28;20503;-72
2022/04/23 04:58:48;;;;;;;24.33;2.95;;;;;;;;;;4993221;28;20026;-72
2022/04/23 05:01:14;;;;;;;13.23;2.50;;;;;;;;;;4993152;28;20403;-73
2022/04/23 05:03:41;;;;;;;9.48;3.03;;;;;;;;;;4993194;28;20447;-73
2022/04/23 05:06:07;;;;;;;13.48;3.03;;;;;;;;;;4992905;28;20397;-72
2022/04/23 05:08:34;;;;;;;12.15;2.83;;;;;;;;;;4992893;28;20492;-72
2022/04/23 05:11:00;;;;;;;15.90;2.97;;;;;;;;;;4993036;28;20026;-72
2022/04/23 05:13:27;;;;;;;11.32;2.33;;;;;;;;;;4992964;28;20034;-73
2022/04/23 05:15:53;;;;;;;14.88;3.38;;;;;;;;;;4993242;28;20033;-73
2022/04/23 05:18:19;;;;;;;16.40;3.08;;;;;;;;;;4992851;28;20505;-73
2022/04/23 05:20:46;;;;;;;14.50;2.70;;;;;;;;;;4992664;28;20035;-73
2022/04/23 05:23:14;;;;;;;12.25;2.63;;;;;;;;;;4992766;28;20027;-72
2022/04/23 05:25:40;;;;;;;9.65;3.05;;;;;;;;;;4992900;28;20399;-73
2022/04/23 05:28:06;;;;;;;13.80;3.83;;;;;;;;;;4992751;28;20031;-73
2022/04/23 05:30:33;;;;;;;13.10;2.95;;;;;;;;;;4993259;28;20032;-72
2022/04/23 05:32:59;;;;;;;14.23;3.28;;;;;;;;;;4992193;28;20026;-72
2022/04/23 05:35:25;;;;;;;10.77;2.45;;;;;;;;;;4992563;28;20185;-72
2022/04/23 05:37:52;;;;;;;18.38;2.88;;;;;;;;;;4992806;28;20029;-72
2022/04/23 05:40:18;;;;;;;9.52;2.70;;;;;;;;;;4992394;28;20038;-72
2022/04/23 05:42:44;;;;;;;13.65;2.80;;;;;;;;;;4993513;28;20027;-72
2022/04/23 05:45:10;;;;;;;16.00;2.80;;;;;;;;;;4991337;28;20414;-72
2022/04/23 05:47:41;;;;;;;8.35;2.60;;;;;;;;;;4991961;28;20030;-72
2022/04/23 05:50:08;;;;;;;12.55;3.35;;;;;;;;;;4992380;28;20026;-72
2022/04/23 05:52:37;;;;;;;14.40;2.78;;;;;;;;;;4992244;28;20080;-73
2022/04/23 05:55:05;;;;;;;14.40;2.95;;;;;;;;;;4992643;28;20038;-72
2022/04/23 05:57:34;;;;;;;16.88;3.28;;;;;;;;;;4992482;28;20038;-72
2022/04/23 06:00:00;;;;;;;14.82;2.85;;;;;;;;;;4992035;28;20529;-73
2022/04/23 06:02:27;;;;;;;11.70;2.65;;;;;;;;;;4991929;28;20035;-72
2022/04/23 06:04:53;;;;;;;15.10;3.28;;;;;;;;;;4992050;28;20487;-73
2022/04/23 06:07:19;;;;;;;15.35;3.35;;;;;;;;;;4992210;28;20034;-73
2022/04/23 06:09:46;;;;;;;12.88;3.50;;;;;;;;;;4992632;28;20479;-72
2022/04/23 06:12:12;;;;;;;10.25;3.13;;;;;;;;;;4991939;28;20040;-72
2022/04/23 06:14:39;;;;;;;15.15;3.53;;;;;;;;;;4991949;28;20430;-73
2022/04/23 06:17:10;;;;;;;12.68;3.22;;;;;;;;;;4991631;28;20399;-72
2022/04/23 06:19:37;;;;;;;12.15;2.80;;;;;;;;;;4991954;28;20044;-72
2022/04/23 06:22:04;;;;;;;16.65;2.97;;;;;;;;;;4992041;28;20015;-73
2022/04/23 06:24:30;;;;;;;15.35;3.05;;;;;;;;;;4986940;28;20030;-73
2022/04/23 06:26:56;;;;;;;12.35;2.35;;;;;;;;;;4988863;28;20027;-72
2022/04/23 06:29:23;;;;;;;14.82;3.40;;;;;;;;;;4991214;28;20027;-73
2022/04/23 06:31:50;;;;;;;13.60;3.20;;;;;;;;;;4992638;28;20031;-73
2022/04/23 06:34:16;;;;;;;11.93;2.95;;;;;;;;;;4995327;28;20030;-72
2022/04/23 06:36:43;;;;;;;13.85;3.20;;;;;;;;;;4992139;28;20030;-73
2022/04/23 06:39:09;;;;;;;13.77;2.72;;;;;;;;;;4993035;28;20487;-73
2022/04/23 06:41:35;;;;;;;18.27;3.38;;;;;;;;;;4991431;28;20040;-73
2022/04/23 06:44:02;;;;;;;16.75;3.72;;;;;;;;;;4990981;28;20047;-73
2022/04/23 06:46:28;;;;;;;14.60;3.40;;;;;;;;;;4995092;28;20050;-73
2022/04/23 06:48:55;;;;;;;14.68;3.25;;;;;;;;;;4992521;28;20376;-73
2022/04/23 06:51:22;;;;;;;13.30;3.20;;;;;;;;;;4995777;28;20387;-73
2022/04/23 06:53:48;;;;;;;15.52;3.30;;;;;;;;;;4995604;28;20491;-72
2022/04/23 06:56:14;;;;;;;15.63;3.28;;;;;;;;;;5010970;28;20030;-73
2022/04/23 06:58:41;;;;;;;15.80;3.05;;;;;;;;;;4993047;28;20025;-72
2022/04/23 07:01:07;;;;;;;15.05;3.38;;;;;;;;;;5008932;28;20053;-73
2022/04/23 07:03:36;;;;;;;16.00;2.85;;;;;;;;;;4996016;28;20034;-72
2022/04/23 07:06:03;;;;;;;11.35;2.92;;;;;;;;;;4995260;28;20018;-72
2022/04/23 07:08:29;;;;;;;16.42;3.08;;;;;;;;;;4995284;28;20038;-72
2022/04/23 07:10:55;;;;;;;25.20;3.72;;;;;;;;;;4995148;28;20034;-73
2022/04/23 07:13:22;;;;;;;16.42;3.30;;;;;;;;;;4995407;28;20084;-72
2022/04/23 07:15:48;;;;;;;11.95;2.97;;;;;;;;;;4995872;28;20479;-72
2022/04/23 07:18:14;;;;;;;13.50;3.10;;;;;;;;;;4994990;28;20030;-72
2022/04/23 07:20:47;;;;;;;13.18;2.85;;;;;;;;;;4994880;28;20042;-73
2022/04/23 07:25:58;;;;;;;13.55;2.45;;;;;;;;;;4995016;28;20032;-72
2022/04/23 07:28:25;;;;;;;15.82;2.65;;;;;;;;;;4994587;28;20502;-73
2022/04/23 07:30:52;;;;;;;10.55;2.60;;;;;;;;;;4994614;28;20037;-73
2022/04/23 07:38:49;;;;;;;10.13;2.28;;;;;;;;;;4994804;28;20038;-73
2022/04/23 07:41:15;;;;;;;13.35;2.78;;;;;;;;;;4994562;28;20088;-73
2022/04/23 07:43:41;;;;;;;11.82;2.35;;;;;;;;;;4994515;28;20029;-73
2022/04/23 07:46:08;;;;;;;11.05;2.65;;;;;;;;;;4994630;28;20038;-73
2022/04/23 07:48:34;;;;;;;8.57;2.03;;;;;;;;;;4995341;28;20022;-72
2022/04/23 07:51:00;;;;;;;9.75;2.05;;;;;;;;;;4994391;28;20038;-73
2022/04/23 07:53:28;;;;;;;11.32;2.78;;;;;;;;;;4994379;28;20026;-72
2022/04/23 07:55:55;;;;;;;13.93;2.47;;;;;;;;;;4994538;28;20022;-73
2022/04/23 07:58:21;;;;;;;8.15;1.60;;;;;;;;;;4978457;28;20076;-72
2022/04/23 08:00:47;;;;;;;8.70;2.40;;;;;;;;;;4994734;28;20046;-72
2022/04/23 08:03:15;;;;;;;7.88;1.88;;;;;;;;;;4994261;28;20030;-72
2022/04/23 08:05:42;;;;;;;6.28;2.20;;;;;;;;;;4994209;28;20022;-73
2022/04/23 08:08:08;;;;;;;7.47;1.40;;;;;;;;;;4994001;28;20018;-73
2022/04/23 08:10:35;;;;;;;10.77;2.10;;;;;;;;;;4994300;28;20034;-72
2022/04/23 08:13:01;;;;;;;9.98;2.25;;;;;;;;;;4994058;28;20052;-72
2022/04/23 08:15:27;;;;;;;9.90;2.63;;;;;;;;;;4994411;28;20032;-72
2022/04/23 08:17:54;;;;;;;9.57;2.05;;;;;;;;;;4993970;28;20504;-72
2022/04/23 08:20:21;;;;;;;10.35;1.75;;;;;;;;;;4993993;28;20041;-73
2022/04/23 08:22:47;;;;;;;8.07;2.10;;;;;;;;;;4994161;28;20037;-73
2022/04/23 08:25:13;;;;;;;14.98;2.45;;;;;;;;;;4993982;28;20510;-73
2022/04/23 08:27:53;;;;;;;11.20;2.58;;;;;;;;;;4994167;28;20023;-72
2022/04/23 08:30:35;;;;;;;15.68;2.10;;;;;;;;;;4989592;28;20022;-73
2022/04/23 08:33:05;;;;;;;12.57;2.25;;;;;;;;;;4989415;28;20033;-72
2022/04/23 08:35:31;;;;;;;10.50;2.10;;;;;;;;;;4983152;28;20030;-72
2022/04/23 08:37:59;;;;;;;14.35;2.20;;;;;;;;;;4989242;28;20035;-73
2022/04/23 08:40:26;;;;;;;13.48;1.98;;;;;;;;;;4993132;28;20030;-72
2022/04/23 08:42:52;;;;;;;8.32;1.75;;;;;;;;;;4990517;28;20030;-72
2022/04/23 08:45:18;;;;;;;11.82;2.70;;;;;;;;;;4989094;28;20050;-73
2022/04/23 08:47:45;;;;;;;5.75;1.58;;;;;;;;;;4989149;28;20026;-73
2022/04/23 08:50:12;;;;;;;22.45;2.30;;;;;;;;;;4988912;28;20023;-73
2022/04/23 08:52:41;;;;;;;11.05;2.38;;;;;;;;;;4991490;28;20023;-73
2022/04/23 08:55:08;;;;;;;10.27;2.38;;;;;;;;;;4991306;28;20042;-73
2022/04/23 08:57:38;;;;;;;13.57;2.05;;;;;;;;;;4991889;28;20104;-72
2022/04/23 09:00:08;;;;;;;11.25;2.38;;;;;;;;;;4993214;28;20041;-73
2022/04/23 09:02:35;;;;;;;14.93;2.88;;;;;;;;;;4993561;28;20040;-72
2022/04/23 09:05:02;;;;;;;11.85;2.45;;;;;;;;;;4993117;28;20089;-72
2022/04/23 09:07:29;;;;;;;9.68;2.38;;;;;;;;;;4993295;28;20044;-72
2022/04/23 09:09:57;;;;;;;12.65;2.50;;;;;;;;;;4993068;28;20025;-72
2022/04/23 09:12:24;;;;;;;7.40;1.73;;;;;;;;;;4993077;28;20022;-72
2022/04/23 09:14:51;;;;;;;9.13;2.25;;;;;;;;;;4993146;28;20030;-72
2022/04/23 09:25:44;;;;;;;5.45;1.88;;;;;;;;;;4980064;28;20141;-73
2022/04/23 09:28:23;;;;;;;5.50;1.48;;;;;;;;;;4992669;28;20023;-73
2022/04/23 09:30:51;;;;;;;6.47;1.10;;;;;;;;;;4989214;28;20038;-72
2022/04/23 09:33:18;;;;;;;4.90;1.00;;;;;;;;;;4988151;28;20034;-72
2022/04/23 09:35:53;;;;;;;5.53;1.50;;;;;;;;;;4988304;28;20512;-72
2022/04/23 09:38:19;;;;;;;7.25;1.83;;;;;;;;;;4987724;28;20503;-73
2022/04/23 09:40:51;;;;;;;3.63;1.38;;;;;;;;;;5007693;28;20049;-73
2022/04/23 09:43:24;;;;;;;1.33;0.77;;;;;;;;;;4992438;28;20048;-72
2022/04/23 09:45:59;;;;;;;2.95;1.42;;;;;;;;;;4988677;28;20046;-73
2022/04/23 09:48:25;;;;;;;3.45;1.20;;;;;;;;;;4992862;28;20034;-73
2022/04/23 09:50:51;;;;;;;3.10;0.90;;;;;;;;;;4992267;28;20033;-72
2022/04/23 09:53:19;;;;;;;3.10;1.02;;;;;;;;;;4991889;28;20029;-73
2022/04/23 09:55:45;;;;;;;3.13;1.05;;;;;;;;;;4992417;28;20036;-73
2022/04/23 09:58:13;;;;;;;3.53;1.05;;;;;;;;;;4992172;28;20026;-72
2022/04/23 10:00:41;;;;;;;3.35;1.10;;;;;;;;;;4992331;28;20389;-73
2022/04/23 10:03:08;;;;;;;4.45;1.08;;;;;;;;;;4991841;28;20018;-72
2022/04/23 10:05:40;;;;;;;1.77;0.77;;;;;;;;;;4992057;28;20042;-72
2022/04/23 10:08:11;;;;;;;2.30;1.10;;;;;;;;;;4991799;28;20014;-73
2022/04/23 10:10:55;;;;;;;1.33;1.13;;;;;;;;;;4992306;28;20030;-73
2022/04/23 10:13:25;;;;;;;1.50;0.80;;;;;;;;;;4976854;28;20026;-72
2022/04/23 10:15:54;;;;;;;1.80;1.00;;;;;;;;;;4988723;28;20030;-73
2022/04/23 10:18:20;;;;;;;3.17;1.40;;;;;;;;;;4992008;28;20514;-73
2022/04/23 10:20:55;;;;;;;5.60;1.40;;;;;;;;;;4991786;28;20537;-73
2022/04/23 10:23:31;;;;;;;3.70;1.10;;;;;;;;;;4991439;28;20027;-72
2022/04/23 10:26:18;;;;;;;1.80;1.17;;;;;;;;;;4991908;28;20049;-73
2022/04/23 10:28:44;;;;;;;5.03;1.30;;;;;;;;;;4988192;28;20514;-73
2022/04/23 10:31:18;;;;;;;6.25;1.63;;;;;;;;;;4992014;28;20030;-72
2022/04/23 10:33:52;;;;;;;6.32;1.67;;;;;;;;;;4992525;28;20037;-73
2022/04/23 10:36:19;;;;;;;5.80;1.65;;;;;;;;;;4991348;28;20398;-73
2022/04/23 10:38:51;;;;;;;11.02;3.10;;;;;;;;;;4991792;28;20030;-73
2022/04/23 10:41:19;;;;;;;11.48;2.92;;;;;;;;;;4991620;28;20049;-73
2022/04/23 10:44:04;;;;;;;12.35;2.53;;;;;;;;;;4992004;28;20006;-72
2022/04/23 10:46:37;;;;;;;13.48;3.33;;;;;;;;;;4977403;28;20038;-74
2022/04/23 10:49:14;;;;;;;14.88;3.75;;;;;;;;;;5004989;28;20019;-72
2022/04/23 10:51:47;;;;;;;18.80;3.47;;;;;;;;;;4990675;28;20050;-72
2022/04/23 10:54:16;;;;;;;23.13;4.75;;;;;;;;;;4991714;28;20044;-72
2022/04/23 10:56:43;;;;;;;19.00;4.60;;;;;;;;;;4991523;28;20033;-72
2022/04/23 10:59:28;;;;;;;23.58;4.63;;;;;;;;;;4991659;28;20029;-72
2022/04/23 11:02:02;;;;;;;20.75;4.53;;;;;;;;;;4991972;28;20031;-72
2022/04/23 11:04:28;;;;;;;18.52;4.75;;;;;;;;;;4976382;28;20407;-72
2022/04/23 11:12:37;;;;;;;16.58;3.42;;;;;;;;;;4993089;28;20034;-72
2022/04/23 11:15:14;;;;;;;27.30;4.55;;;;;;;;;;4995225;28;20491;-70
2022/04/23 11:17:44;;;;;;;18.05;4.43;;;;;;;;;;4995399;28;20030;-71
2022/04/23 11:20:14;;;;;;;24.00;4.82;;;;;;;;;;4994928;28;20033;-72
2022/04/23 11:22:41;;;;;;;19.38;4.57;;;;;;;;;;4995455;28;20014;-72
2022/04/23 11:25:08;;;;;;;15.35;3.60;;;;;;;;;;4995200;28;20487;-72
2022/04/23 11:27:38;;;;;;;17.45;3.60;;;;;;;;;;4995398;28;20037;-72
2022/04/23 11:30:05;;;;;;;13.55;4.10;;;;;;;;;;4994780;28;20031;-72
2022/04/23 11:32:36;;;;;;;15.93;3.67;;;;;;;;;;4995170;28;20041;-72
2022/04/23 11:35:04;;;;;;;11.10;3.55;;;;;;;;;;4994440;28;20014;-72
2022/04/23 11:37:40;;;;;;;18.02;4.35;;;;;;;;;;4994655;28;20394;-72
2022/04/23 11:40:11;;;;;;;19.73;3.83;;;;;;;;;;4994867;28;20423;-72
2022/04/23 11:42:37;;;;;;;16.42;3.90;;;;;;;;;;4993670;28;20092;-72
2022/04/23 11:45:03;;;;;;;20.98;4.25;;;;;;;;;;4994548;28;20042;-73
2022/04/23 11:47:30;;;;;;;15.68;3.78;;;;;;;;;;4994733;28;20035;-72
2022/04/23 11:50:10;;;;;;;19.90;4.68;;;;;;;;;;4994152;28;20039;-72
2022/04/23 11:52:37;;;;;;;18.40;4.23;;;;;;;;;;4980883;28;20034;-72
2022/04/23 11:55:03;;;;;;;19.52;3.92;;;;;;;;;;4994905;28;20032;-72
2022/04/23 11:57:30;;;;;;;13.75;3.55;;;;;;;;;;4994763;28;20022;-72
2022/04/23 12:00:01;;;;;;;17.42;3.30;;;;;;;;;;4994570;28;20032;-73
2022/04/23 12:02:28;;;;;;;20.08;3.40;;;;;;;;;;4994416;28;20395;-72
2022/04/23 12:04:55;;;;;;;25.83;3.78;;;;;;;;;;4994083;28;20022;-73
2022/04/23 12:07:22;;;;;;;13.68;3.28;;;;;;;;;;4994257;28;20030;-73
2022/04/23 12:09:52;;;;;;;16.98;3.13;;;;;;;;;;4994755;28;20041;-73
2022/04/23 12:12:19;;;;;;;10.73;2.35;;;;;;;;;;4994140;28;20041;-73
2022/04/23 12:14:46;;;;;;;12.85;2.60;;;;;;;;;;4994180;28;20019;-73
2022/04/23 12:17:20;;;;;;;14.85;3.67;;;;;;;;;;4994220;28;20032;-73
2022/04/23 12:19:48;;;;;;;16.77;2.90;;;;;;;;;;4994496;28;20026;-73
2022/04/23 12:22:30;;;;;;;13.27;3.58;;;;;;;;;;4993925;28;20504;-73
2022/04/23 12:25:09;;;;;;;13.23;3.10;;;;;;;;;;4990088;28;20025;-73
2022/04/23 12:42:02;;;;;;;14.25;2.80;;;;;;;;;;4971947;28;20023;-74
2022/04/23 12:44:55;;;;;;;17.38;3.05;;;;;;;;;;4972008;28;20044;-74
2022/04/23 12:47:28;;;;;;;13.40;2.85;;;;;;;;;;4970112;28;20151;-74
2022/04/23 12:49:56;;;;;;;15.77;3.72;;;;;;;;;;4971857;28;20034;-73
2022/04/23 12:52:24;;;;;;;24.05;3.40;;;;;;;;;;4956408;28;20043;-72
2022/04/23 12:55:09;;;;;;;33.42;4.45;;;;;;;;;;4972296;28;20030;-72
2022/04/23 12:57:35;;;;;;;25.33;3.58;;;;;;;;;;4972167;28;20077;-71
2022/04/23 13:00:02;;;;;;;20.77;3.25;;;;;;;;;;4967207;28;20023;-71
2022/04/23 13:02:35;;;;;;;16.73;3.90;;;;;;;;;;4971364;28;20034;-71
2022/04/23 13:05:02;;;;;;;8.00;1.63;;;;;;;;;;4977757;28;20030;-70
2022/04/23 13:10:14;;;;;;;1.00;0.70;;;;;;;;;;4992903;28;20037;-68
2022/04/23 13:12:40;;;;;;;0.85;0.52;;;;;;;;;;4993723;28;20040;-68
2022/04/23 13:15:07;;;;;;;10.38;0.30;;;;;;;;;;4992957;28;20019;-69
2022/04/23 13:17:34;;;;;;;8.48;0.55;;;;;;;;;;4992421;28;20507;-69
2022/04/23 13:20:02;;;;;;;4.32;0.25;;;;;;;;;;4992998;28;20030;-68
2022/04/23 13:22:28;;;;;;;1.33;0.25;;;;;;;;;;4992905;28;20019;-68
2022/04/23 13:24:55;;;;;;;6.03;0.40;;;;;;;;;;4993523;28;20030;-69
2022/04/23 13:27:23;;;;;;;2.70;0.35;;;;;;;;;;4988686;28;20028;-69
2022/04/23 13:29:52;;;;;;;0.68;0.13;;;;;;;;;;4988025;28;20052;-69
2022/04/23 13:32:18;;;;;;;0.00;0.00;;;;;;;;;;4988583;28;20040;-69
2022/04/23 13:34:45;;;;;;;0.40;0.35;;;;;;;;;;4989970;28;20029;-69
2022/04/23 13:37:11;;;;;;;0.30;0.30;;;;;;;;;;4991060;28;20015;-69
2022/04/23 13:39:38;;;;;;;1.88;0.20;;;;;;;;;;4988894;28;20491;-69
2022/04/23 13:42:04;;;;;;;12.50;0.73;;;;;;;;;;4988221;28;20098;-69
2022/04/23 13:44:31;;;;;;;0.30;0.20;;;;;;;;;;4987878;28;20061;-69
2022/04/23 13:46:58;;;;;;;0.10;0.10;;;;;;;;;;4992476;28;20034;-69
2022/04/23 13:49:24;;;;;;;0.10;0.10;;;;;;;;;;4977036;28;20037;-69
2022/04/23 13:51:51;;;;;;;0.10;0.10;;;;;;;;;;4988639;28;20037;-70
2022/04/23 13:54:17;;;;;;;0.10;0.10;;;;;;;;;;4988194;28;20026;-69
2022/04/23 13:56:44;;;;;;;0.10;0.10;;;;;;;;;;4992613;28;20029;-69
2022/04/23 13:59:10;;;;;;;0.10;0.10;;;;;;;;;;4997377;28;20029;-69
2022/04/23 14:01:37;;;;;;;0.20;0.17;;;;;;;;;;4990871;28;20031;-69
2022/04/23 14:12:18;;;;;;;0.57;0.43;;;;;;;;;;4987856;28;20383;-69
2022/04/23 14:14:47;;;;;;;0.40;0.40;;;;;;;;;;4987389;28;20022;-69
2022/04/23 14:17:13;;;;;;;0.20;0.20;;;;;;;;;;4987829;28;20076;-69
2022/04/23 14:19:40;;;;;;;0.10;0.10;;;;;;;;;;4990433;28;20030;-69
2022/04/23 14:22:07;;;;;;;0.10;0.10;;;;;;;;;;4989861;28;20019;-69
2022/04/23 14:24:33;;;;;;;2.20;0.85;;;;;;;;;;4988101;28;20033;-69
2022/04/23 14:27:00;;;;;;;1.10;0.57;;;;;;;;;;4991928;28;20040;-69
2022/04/23 14:29:26;;;;;;;0.30;0.30;;;;;;;;;;4991550;28;20395;-69
2022/04/23 14:31:52;;;;;;;0.45;0.40;;;;;;;;;;4991945;28;20498;-69
2022/04/23 14:34:19;;;;;;;8.48;1.00;;;;;;;;;;4991960;28;20032;-69
2022/04/23 14:36:45;;;;;;;0.85;0.40;;;;;;;;;;4992817;28;20034;-69
2022/04/23 14:39:11;;;;;;;0.10;0.10;;;;;;;;;;4992122;28;20026;-69
2022/04/23 14:41:38;;;;;;;0.10;0.10;;;;;;;;;;4992061;28;20038;-69
2022/04/23 14:44:04;;;;;;;0.20;0.20;;;;;;;;;;4991521;28;20043;-69
2022/04/23 14:46:31;;;;;;;0.10;0.10;;;;;;;;;;4991812;28;20041;-69
2022/04/23 14:48:57;;;;;;;0.40;0.40;;;;;;;;;;4995161;28;20026;-69
2022/04/23 14:54:10;;;;;;;0.32;0.32;;;;;;;;;;4995565;28;20037;-69
2022/04/23 14:56:37;;;;;;;0.10;0.10;;;;;;;;;;4995534;28;20084;-69
2022/04/23 14:59:03;;;;;;;0.10;0.10;;;;;;;;;;4995021;28;20023;-69
2022/04/23 15:01:30;;;;;;;0.50;0.50;;;;;;;;;;4995742;28;20241;-69
2022/04/23 15:03:59;;;;;;;0.28;0.20;;;;;;;;;;4995782;28;20030;-70
2022/04/23 15:06:26;;;;;;;14.23;0.50;;;;;;;;;;4996115;28;20076;-69
2022/04/23 15:08:53;;;;;;;1.08;0.20;;;;;;;;;;4995243;28;20072;-69
2022/04/23 15:11:19;;;;;;;5.10;0.57;;;;;;;;;;4994855;28;20503;-70
2022/04/23 15:13:45;;;;;;;0.10;0.10;;;;;;;;;;5010599;28;20398;-69
2022/04/23 15:16:12;;;;;;;0.43;0.43;;;;;;;;;;4995292;28;20029;-69
2022/04/23 15:18:38;;;;;;;0.10;0.10;;;;;;;;;;5007200;28;20036;-69
2022/04/23 15:21:05;;;;;;;0.17;0.17;;;;;;;;;;4992772;28;20022;-69
2022/04/23 15:23:33;;;;;;;0.17;0.17;;;;;;;;;;4990705;28;20030;-69
2022/04/23 15:26:00;;;;;;;0.10;0.10;;;;;;;;;;4990345;28;20045;-70
2022/04/23 15:28:26;;;;;;;0.10;0.10;;;;;;;;;;4995110;28;20072;-69